Terminal Aerodrome Forecast
Issued by NWS

Home | Current Version | Previous Version | Text Only | Print | Product List | Glossary On
Versions: 1 2 3 4 5 6 7 8 9 10 11 12 13 14 15
000
FTUS45 KABQ 310022 AAA
TAFAEG
TAF AMD
KAEG 310022Z 3100/3124 VRB06KT P6SM SCT090 SCT150
     FM310400 28006KT P6SM SCT110 SCT150
     FM312000 22009KT P6SM SCT090 SCT150
     FM312300 24010KT P6SM VCSH SCT090 BKN120=

USA.gov is the U.S. government's official web portal to all federal, state and local government web resources and services.